createdAt,value
2022-11-29T00:01:27.608Z,18.60
2022-11-29T00:03:55.865Z,17.67
2022-11-29T00:06:30.908Z,17.40
2022-11-29T00:09:01.271Z,17.03
2022-11-29T00:11:55.228Z,16.60
2022-11-29T00:14:23.983Z,16.83
2022-11-29T00:16:59.434Z,16.63
2022-11-29T00:19:26.734Z,17.67
2022-11-29T00:21:53.823Z,18.00
2022-11-29T00:24:21.508Z,17.03
2022-11-29T00:26:49.241Z,17.03
2022-11-29T00:29:17.238Z,16.80
2022-11-29T00:31:44.757Z,16.10
2022-11-29T00:34:12.800Z,16.10
2022-11-29T00:36:40.833Z,16.43
2022-11-29T00:39:11.935Z,16.03
2022-11-29T00:41:40.204Z,15.47
2022-11-29T00:44:08.180Z,16.43
2022-11-29T00:46:35.361Z,17.70
2022-11-29T00:49:02.537Z,17.53
2022-11-29T00:51:29.689Z,18.13
2022-11-29T00:53:56.842Z,18.50
2022-11-29T00:56:24.127Z,18.23
2022-11-29T00:58:51.458Z,17.27
2022-11-29T01:01:18.921Z,19.37
2022-11-29T01:03:46.411Z,21.03
2022-11-29T01:06:17.295Z,23.93
2022-11-29T01:08:48.313Z,24.43
2022-11-29T01:11:23.268Z,26.97
2022-11-29T01:13:55.035Z,25.80
2022-11-29T01:16:22.767Z,22.03
2022-11-29T01:18:50.104Z,21.90
2022-11-29T01:21:22.286Z,20.50
2022-11-29T01:23:51.709Z,20.00
2022-11-29T01:26:25.582Z,20.00
2022-11-29T01:28:55.293Z,18.13
2022-11-29T01:31:29.937Z,18.67
2022-11-29T01:34:00.239Z,18.20
2022-11-29T01:36:28.378Z,19.60
2022-11-29T01:38:55.648Z,17.07
2022-11-29T01:41:31.182Z,17.17
2022-11-29T01:44:05.673Z,16.83
2022-11-29T01:46:36.897Z,17.00
2022-11-29T01:49:21.279Z,17.60
2022-11-29T01:51:53.766Z,16.60
2022-11-29T01:54:22.096Z,15.97
2022-11-29T01:56:51.883Z,16.10
2022-11-29T01:59:25.817Z,15.13
2022-11-29T02:01:54.635Z,16.40
2022-11-29T02:04:21.927Z,15.30
2022-11-29T02:06:49.376Z,16.47
2022-11-29T02:09:23.965Z,15.47
2022-11-29T02:12:22.850Z,16.10
2022-11-29T02:15:37.714Z,15.63
2022-11-29T02:18:45.446Z,15.43
2022-11-29T02:21:28.576Z,16.33
2022-11-29T02:24:20.336Z,15.77
2022-11-29T02:27:21.632Z,17.13
2022-11-29T02:30:27.185Z,16.93
2022-11-29T02:33:37.637Z,17.83
2022-11-29T02:36:24.898Z,18.67
2022-11-29T02:39:33.255Z,24.03
2022-11-29T02:42:24.741Z,19.93
2022-11-29T02:45:25.946Z,24.63
2022-11-29T02:48:38.567Z,19.57
2022-11-29T02:51:26.112Z,23.73
2022-11-29T02:54:09.122Z,22.67
2022-11-29T02:56:54.956Z,19.70
2022-11-29T03:00:03.784Z,22.93
2022-11-29T03:02:51.992Z,21.93
2022-11-29T03:06:08.907Z,22.23
2022-11-29T03:09:01.660Z,19.37
2022-11-29T03:12:10.753Z,20.07
2022-11-29T03:15:11.255Z,20.40
2022-11-29T03:18:07.307Z,24.57
2022-11-29T03:20:36.152Z,21.07
2022-11-29T03:23:14.281Z,21.83
2022-11-29T03:26:03.859Z,21.13
2022-11-29T03:28:55.089Z,23.67
2022-11-29T03:32:08.382Z,23.60
2022-11-29T03:35:08.548Z,20.40
2022-11-29T03:37:58.757Z,19.97
2022-11-29T03:41:05.743Z,20.80
2022-11-29T03:43:41.679Z,20.77
2022-11-29T03:46:21.772Z,21.20
2022-11-29T03:48:56.211Z,21.13
2022-11-29T03:51:41.380Z,21.00
2022-11-29T03:54:14.838Z,21.60
2022-11-29T03:56:42.595Z,22.73
2022-11-29T04:00:07.972Z,21.30
2022-11-29T04:03:44.159Z,21.90
2022-11-29T04:06:41.980Z,23.67
2022-11-29T04:09:51.072Z,23.60
2022-11-29T04:12:25.889Z,21.57
2022-11-29T04:15:38.845Z,19.97
2022-11-29T04:18:45.858Z,22.50
2022-11-29T04:21:46.687Z,23.70
2022-11-29T04:24:42.046Z,21.27
2022-11-29T04:27:39.020Z,24.23
2022-11-29T04:30:23.673Z,24.87
2022-11-29T04:33:41.827Z,26.23
2022-11-29T04:36:41.838Z,19.70
2022-11-29T04:39:47.714Z,19.97
2022-11-29T04:42:45.139Z,19.27
2022-11-29T04:45:37.020Z,21.50
2022-11-29T04:48:46.648Z,21.00
2022-11-29T04:51:43.146Z,22.80
2022-11-29T04:54:55.475Z,23.53
2022-11-29T04:58:03.969Z,20.83
2022-11-29T05:00:45.417Z,23.07
2022-11-29T05:03:26.328Z,25.47
2022-11-29T05:06:15.429Z,19.57
2022-11-29T05:09:31.537Z,21.07
2022-11-29T05:12:25.792Z,23.97
2022-11-29T05:15:14.394Z,26.93
2022-11-29T05:18:00.303Z,28.43
2022-11-29T05:20:53.093Z,26.43
2022-11-29T05:24:00.794Z,25.13
2022-11-29T05:26:38.448Z,25.97
2022-11-29T05:29:22.156Z,22.77
2022-11-29T05:32:13.875Z,27.50
2022-11-29T05:35:08.565Z,22.30
2022-11-29T05:37:54.836Z,24.50
2022-11-29T05:40:55.942Z,23.57
2022-11-29T05:43:28.249Z,21.50
2022-11-29T05:46:16.140Z,21.43
2022-11-29T05:49:03.859Z,23.67
2022-11-29T05:52:24.598Z,33.83
2022-11-29T05:55:42.983Z,27.57
2022-11-29T05:58:50.909Z,33.90
2022-11-29T06:02:17.678Z,29.27
2022-11-29T06:05:16.942Z,28.17
2022-11-29T06:07:52.165Z,30.37
2022-11-29T06:10:23.465Z,25.93
2022-11-29T06:13:27.987Z,28.40
2022-11-29T06:16:32.579Z,24.23
2022-11-29T06:19:24.255Z,22.63
2022-11-29T06:22:34.892Z,22.40
2022-11-29T06:25:17.420Z,21.63
2022-11-29T06:28:28.688Z,20.57
2022-11-29T06:31:25.498Z,21.20
2022-11-29T06:34:30.364Z,23.13
2022-11-29T06:37:06.937Z,25.60
2022-11-29T06:39:36.991Z,32.97
2022-11-29T06:42:04.096Z,28.90
2022-11-29T06:44:31.777Z,29.53
2022-11-29T06:47:19.206Z,28.90
2022-11-29T06:50:33.590Z,27.23
2022-11-29T06:53:19.366Z,23.57
2022-11-29T06:56:21.354Z,23.67
2022-11-29T06:59:50.853Z,26.07
2022-11-29T07:02:38.908Z,25.50
2022-11-29T07:05:29.078Z,33.67
2022-11-29T07:08:08.849Z,23.10
2022-11-29T07:10:39.747Z,21.23
2022-11-29T07:13:07.637Z,30.57
2022-11-29T07:15:37.946Z,23.80
2022-11-29T07:18:33.418Z,21.73
2022-11-29T07:21:35.561Z,23.50
2022-11-29T07:24:38.467Z,29.67
2022-11-29T07:27:23.213Z,26.00
2022-11-29T07:30:12.109Z,24.63
2022-11-29T07:33:21.202Z,25.37
2022-11-29T07:36:40.986Z,20.63
2022-11-29T07:39:32.450Z,20.73
2022-11-29T07:42:55.135Z,21.27
2022-11-29T07:45:31.978Z,28.13
2022-11-29T07:47:59.841Z,29.93
2022-11-29T07:50:30.934Z,26.83
2022-11-29T07:52:59.339Z,25.70
2022-11-29T07:55:29.705Z,24.50
2022-11-29T07:57:56.841Z,29.20
2022-11-29T08:00:24.214Z,26.20
2022-11-29T08:02:51.828Z,31.17
2022-11-29T08:05:19.215Z,29.27
2022-11-29T08:07:47.787Z,25.33
2022-11-29T08:10:16.975Z,23.20
2022-11-29T08:12:47.728Z,25.47
2022-11-29T08:15:15.171Z,21.70
2022-11-29T08:17:42.579Z,21.23
2022-11-29T08:20:11.664Z,23.73
2022-11-29T08:22:38.946Z,20.83
2022-11-29T08:25:07.867Z,25.73
2022-11-29T08:27:36.840Z,22.33
2022-11-29T08:30:06.517Z,21.87
2022-11-29T08:32:34.899Z,22.43
2022-11-29T08:35:01.922Z,21.20
2022-11-29T08:37:29.163Z,24.00
2022-11-29T08:39:58.261Z,21.13
2022-11-29T08:42:25.681Z,25.03
2022-11-29T08:44:52.682Z,22.13
2022-11-29T08:47:37.894Z,21.33
2022-11-29T08:50:17.099Z,18.93
2022-11-29T08:53:06.497Z,21.23
2022-11-29T08:55:37.670Z,21.50
2022-11-29T08:58:12.160Z,22.63
2022-11-29T09:00:40.919Z,21.63
2022-11-29T09:03:27.303Z,19.57
2022-11-29T09:05:55.375Z,19.87
2022-11-29T09:08:22.599Z,20.77
2022-11-29T09:10:50.105Z,21.23
2022-11-29T09:13:18.232Z,21.30
2022-11-29T09:15:45.485Z,19.57
2022-11-29T09:18:12.802Z,20.20
2022-11-29T09:20:46.795Z,19.60
2022-11-29T09:23:14.126Z,19.60
2022-11-29T09:25:41.185Z,18.90
2022-11-29T09:28:08.756Z,21.30
2022-11-29T09:30:38.028Z,19.13
2022-11-29T09:33:05.418Z,19.67
2022-11-29T09:35:33.812Z,19.53
2022-11-29T09:38:01.118Z,20.43
2022-11-29T09:40:40.607Z,23.10
2022-11-29T09:43:23.306Z,19.60
2022-11-29T09:46:16.016Z,20.07
2022-11-29T09:49:27.755Z,20.43
2022-11-29T09:52:38.352Z,21.27
2022-11-29T09:55:32.336Z,20.10
2022-11-29T09:58:05.947Z,19.57
2022-11-29T10:00:38.752Z,18.87
2022-11-29T10:03:28.231Z,20.43
2022-11-29T10:06:16.926Z,20.50
2022-11-29T10:08:44.855Z,17.77
2022-11-29T10:12:06.155Z,19.03
2022-11-29T10:14:58.871Z,17.10
2022-11-29T10:18:02.325Z,18.27
2022-11-29T10:20:42.444Z,16.43
2022-11-29T10:23:46.958Z,17.33
2022-11-29T10:26:14.786Z,16.87
2022-11-29T10:28:45.135Z,17.53
2022-11-29T10:31:35.005Z,16.63
2022-11-29T10:34:12.639Z,16.27
2022-11-29T10:36:43.885Z,17.03
2022-11-29T10:39:35.711Z,16.67
2022-11-29T10:42:06.642Z,16.53
2022-11-29T10:44:34.079Z,17.10
2022-11-29T10:47:10.441Z,16.03
2022-11-29T10:49:40.288Z,15.93
2022-11-29T10:52:20.260Z,15.17
2022-11-29T10:54:49.325Z,17.70
2022-11-29T10:57:21.210Z,15.93
2022-11-29T11:00:11.505Z,15.47
2022-11-29T11:02:39.159Z,16.27
2022-11-29T11:05:18.845Z,16.53
2022-11-29T11:07:55.980Z,15.70
2022-11-29T11:10:29.585Z,16.33
2022-11-29T11:13:27.367Z,15.90
2022-11-29T11:16:08.128Z,16.93
2022-11-29T11:18:36.251Z,16.40
2022-11-29T11:21:07.494Z,16.73
2022-11-29T11:23:42.361Z,16.53
2022-11-29T11:26:13.881Z,17.20
2022-11-29T11:28:53.339Z,16.40
2022-11-29T11:31:38.245Z,17.50
2022-11-29T11:34:29.632Z,17.67
2022-11-29T11:37:30.847Z,17.73
2022-11-29T11:40:01.351Z,18.63
2022-11-29T11:42:41.030Z,17.30
2022-11-29T11:45:13.901Z,18.43
2022-11-29T11:47:52.289Z,17.73
2022-11-29T11:50:52.255Z,19.23
2022-11-29T11:53:35.703Z,18.83
2022-11-29T11:56:12.597Z,19.10
2022-11-29T11:58:57.802Z,18.33
2022-11-29T12:01:30.303Z,18.63
2022-11-29T12:04:13.076Z,19.40
2022-11-29T12:07:02.021Z,20.00
2022-11-29T12:09:55.831Z,20.73
2022-11-29T12:12:43.384Z,20.97
2022-11-29T12:15:30.604Z,21.33
2022-11-29T12:18:13.910Z,21.27
2022-11-29T12:20:58.285Z,22.00
2022-11-29T12:23:30.981Z,22.20
2022-11-29T12:26:41.196Z,21.57
2022-11-29T12:29:19.958Z,21.97
2022-11-29T12:32:19.437Z,23.30
2022-11-29T12:35:09.444Z,23.63
2022-11-29T12:38:04.256Z,24.27
2022-11-29T12:40:57.443Z,25.47
2022-11-29T12:44:05.366Z,25.73
2022-11-29T12:46:34.231Z,23.93
2022-11-29T12:49:31.896Z,25.10
2022-11-29T12:52:48.313Z,24.83
2022-11-29T12:55:26.361Z,25.03
2022-11-29T12:58:46.838Z,25.20
2022-11-29T13:01:47.261Z,26.60
2022-11-29T13:04:38.343Z,24.93
2022-11-29T13:07:46.298Z,25.33
2022-11-29T13:10:48.662Z,23.33
2022-11-29T13:13:29.931Z,23.87
2022-11-29T13:16:21.279Z,21.23
2022-11-29T13:19:24.049Z,20.30
2022-11-29T13:22:07.179Z,22.03
2022-11-29T13:24:59.488Z,21.40
2022-11-29T13:27:32.483Z,21.13
2022-11-29T13:30:01.590Z,19.77
2022-11-29T13:32:48.757Z,19.47
2022-11-29T13:35:15.611Z,19.63
2022-11-29T13:38:07.492Z,17.57
2022-11-29T13:41:11.229Z,18.40
2022-11-29T13:44:15.027Z,17.33
2022-11-29T13:46:56.703Z,18.53
2022-11-29T13:50:07.377Z,18.17
2022-11-29T13:52:49.549Z,18.07
2022-11-29T13:55:30.865Z,18.53
2022-11-29T13:58:29.027Z,17.90
2022-11-29T14:01:12.556Z,18.07
2022-11-29T14:04:07.471Z,18.67
2022-11-29T14:06:39.117Z,18.17
2022-11-29T14:09:29.523Z,18.07
2022-11-29T14:12:23.488Z,18.93
2022-11-29T14:15:03.890Z,19.80
2022-11-29T14:17:53.929Z,18.07
2022-11-29T14:20:23.944Z,18.27
2022-11-29T14:23:06.460Z,19.47
2022-11-29T14:26:01.343Z,19.27
2022-11-29T14:28:34.053Z,19.87
2022-11-29T14:31:03.505Z,20.30
2022-11-29T14:34:12.861Z,19.43
2022-11-29T14:36:42.955Z,19.93
2022-11-29T14:40:03.283Z,20.17
2022-11-29T14:42:31.846Z,19.40
2022-11-29T14:45:06.320Z,20.50
2022-11-29T14:47:47.155Z,19.43
2022-11-29T14:50:39.351Z,19.73
2022-11-29T14:53:28.044Z,19.87
2022-11-29T14:56:35.408Z,19.43
2022-11-29T14:59:51.770Z,18.93
2022-11-29T15:02:29.377Z,18.73
2022-11-29T15:05:04.918Z,19.03
2022-11-29T15:07:33.690Z,18.57
2022-11-29T15:10:05.050Z,19.37
2022-11-29T15:12:37.301Z,19.80
2022-11-29T15:15:31.979Z,18.63
2022-11-29T15:18:58.090Z,21.07
2022-11-29T15:22:09.759Z,18.57
2022-11-29T15:25:02.206Z,19.43
2022-11-29T15:27:29.600Z,19.87
2022-11-29T15:29:56.854Z,20.07
2022-11-29T15:32:30.914Z,19.73
2022-11-29T15:34:58.717Z,20.37
2022-11-29T15:37:35.755Z,20.30
2022-11-29T15:40:19.989Z,19.77
2022-11-29T15:43:20.122Z,19.07
2022-11-29T15:45:52.004Z,19.80
2022-11-29T15:48:20.909Z,21.20
2022-11-29T15:51:09.015Z,19.07
2022-11-29T15:54:12.780Z,20.33
2022-11-29T15:56:55.585Z,20.10
2022-11-29T15:59:34.635Z,20.97
2022-11-29T16:02:26.587Z,21.87
2022-11-29T16:05:03.182Z,24.10
2022-11-29T16:07:32.825Z,22.03
2022-11-29T16:10:16.673Z,22.83
2022-11-29T16:13:07.735Z,22.03
2022-11-29T16:15:40.038Z,21.40
2022-11-29T16:18:20.024Z,23.20
2022-11-29T16:21:04.457Z,21.47
2022-11-29T16:23:42.928Z,24.47
2022-11-29T16:26:28.746Z,26.27
2022-11-29T16:28:58.153Z,26.97
2022-11-29T16:31:34.481Z,26.37
2022-11-29T16:34:31.645Z,26.40
2022-11-29T16:37:06.615Z,26.20
2022-11-29T16:39:37.858Z,22.47
2022-11-29T16:42:30.244Z,23.97
2022-11-29T16:45:16.050Z,23.93
2022-11-29T16:48:02.820Z,25.50
2022-11-29T16:50:32.700Z,23.23
2022-11-29T16:53:47.993Z,23.37
2022-11-29T16:56:17.446Z,23.43
2022-11-29T16:59:16.966Z,21.80
2022-11-29T17:01:36.035Z,22.50
2022-11-29T17:04:05.674Z,23.10
2022-11-29T17:06:33.090Z,21.90
2022-11-29T17:09:01.669Z,23.47
2022-11-29T17:11:30.378Z,22.93
2022-11-29T17:13:57.750Z,23.60
2022-11-29T17:16:25.142Z,24.73
2022-11-29T17:18:55.387Z,22.63
2022-11-29T17:21:32.349Z,22.33
2022-11-29T17:23:59.327Z,23.60
2022-11-29T17:26:26.528Z,22.03
2022-11-29T17:28:54.383Z,22.57
2022-11-29T17:31:24.149Z,23.63
2022-11-29T17:33:51.671Z,23.43
2022-11-29T17:36:20.661Z,23.03
2022-11-29T17:38:48.508Z,22.80
2022-11-29T17:41:21.867Z,23.20
2022-11-29T17:43:50.896Z,23.60
2022-11-29T17:46:28.217Z,22.87
2022-11-29T17:48:56.350Z,22.73
2022-11-29T17:54:12.138Z,23.17
2022-11-29T17:56:39.431Z,22.07
2022-11-29T17:59:07.435Z,21.27
2022-11-29T18:01:36.158Z,22.57
2022-11-29T18:04:06.425Z,21.63
2022-11-29T18:06:40.186Z,21.70
2022-11-29T18:09:10.416Z,21.53
2022-11-29T18:11:49.850Z,22.30
2022-11-29T18:14:23.945Z,22.70
2022-11-29T18:16:51.918Z,23.10
2022-11-29T18:19:22.031Z,24.57
2022-11-29T18:21:50.244Z,22.27
2022-11-29T18:24:18.474Z,22.20
2022-11-29T18:26:46.168Z,22.23
2022-11-29T18:29:13.665Z,21.93
2022-11-29T18:31:43.657Z,21.13
2022-11-29T18:34:13.832Z,21.57
2022-11-29T18:36:47.604Z,20.13
2022-11-29T18:39:17.670Z,21.33
2022-11-29T18:41:50.588Z,19.50
2022-11-29T18:44:21.542Z,18.80
2022-11-29T18:46:49.234Z,18.80
2022-11-29T18:49:19.520Z,20.57
2022-11-29T18:51:47.663Z,21.50
2022-11-29T18:54:17.667Z,22.27
2022-11-29T18:56:46.615Z,22.20
2022-11-29T18:59:17.637Z,20.60
2022-11-29T19:01:48.053Z,21.07
2022-11-29T19:04:21.138Z,21.30
2022-11-29T19:06:48.967Z,20.13
2022-11-29T19:09:21.792Z,19.87
2022-11-29T19:11:51.925Z,20.67
2022-11-29T19:14:19.882Z,20.80
2022-11-29T19:16:49.771Z,19.83
2022-11-29T19:19:18.918Z,19.63
2022-11-29T19:21:46.142Z,22.17
2022-11-29T19:24:15.736Z,21.83
2022-11-29T19:26:45.805Z,21.27
2022-11-29T19:29:14.591Z,22.40
2022-11-29T19:31:42.685Z,20.77
2022-11-29T19:34:10.439Z,21.60
2022-11-29T19:36:42.790Z,24.33
2022-11-29T19:39:17.865Z,22.30
2022-11-29T19:41:47.690Z,22.07
2022-11-29T19:44:15.225Z,22.70
2022-11-29T19:46:47.177Z,22.03
2022-11-29T19:49:15.114Z,22.43
2022-11-29T19:51:42.195Z,23.07
2022-11-29T19:54:11.924Z,23.47
2022-11-29T19:56:39.972Z,24.03
2022-11-29T19:59:08.479Z,24.07
2022-11-29T20:01:41.766Z,23.40
2022-11-29T20:04:11.984Z,23.20
2022-11-29T20:06:40.276Z,23.83
2022-11-29T20:09:07.973Z,22.70
2022-11-29T20:11:35.524Z,22.30
2022-11-29T20:14:04.768Z,22.77
2022-11-29T20:16:32.505Z,23.13
2022-11-29T20:18:59.992Z,23.33
2022-11-29T20:21:32.771Z,24.97
2022-11-29T20:24:05.580Z,24.17
2022-11-29T20:26:36.290Z,23.70
2022-11-29T20:29:05.080Z,25.23
2022-11-29T20:31:34.431Z,25.60
2022-11-29T20:34:02.723Z,26.47
2022-11-29T20:37:19.495Z,26.30
2022-11-29T20:40:15.863Z,26.77
2022-11-29T20:43:17.550Z,27.13
2022-11-29T20:45:45.226Z,27.00
2022-11-29T20:48:25.786Z,27.57
2022-11-29T20:51:02.877Z,30.03
2022-11-29T20:53:40.582Z,28.57
2022-11-29T20:56:09.139Z,28.60
2022-11-29T20:58:36.233Z,30.50
2022-11-29T21:01:05.110Z,31.13
2022-11-29T21:03:32.684Z,30.10
2022-11-29T21:06:03.670Z,29.73
2022-11-29T21:08:31.214Z,30.20
2022-11-29T21:11:08.007Z,28.90
2022-11-29T21:13:35.894Z,30.37
2022-11-29T21:16:03.983Z,31.03
2022-11-29T21:18:32.430Z,30.83
2022-11-29T21:21:14.837Z,31.40
2022-11-29T21:23:51.996Z,30.40
2022-11-29T21:26:49.707Z,29.87
2022-11-29T21:29:20.840Z,30.97
2022-11-29T21:31:51.889Z,31.30
2022-11-29T21:34:20.341Z,30.67
2022-11-29T21:36:57.991Z,33.50
2022-11-29T21:39:33.529Z,34.17
2022-11-29T21:42:01.359Z,31.87
2022-11-29T21:44:28.480Z,32.07
2022-11-29T21:46:55.646Z,34.67
2022-11-29T21:49:22.640Z,32.47
2022-11-29T21:51:49.699Z,33.43
2022-11-29T21:54:16.930Z,32.23
2022-11-29T21:56:44.314Z,31.73
2022-11-29T21:59:11.360Z,32.07
2022-11-29T22:01:42.837Z,33.67
2022-11-29T22:04:10.505Z,33.43
2022-11-29T22:06:37.836Z,32.43
2022-11-29T22:09:05.472Z,31.93
2022-11-29T22:11:34.323Z,33.10
2022-11-29T22:14:14.624Z,34.53
2022-11-29T22:16:59.700Z,33.87
2022-11-29T22:19:33.878Z,33.43
2022-11-29T22:22:07.089Z,33.90
2022-11-29T22:24:36.665Z,31.80
2022-11-29T22:27:04.032Z,34.07
2022-11-29T22:29:31.366Z,32.27
2022-11-29T22:31:59.538Z,33.73
2022-11-29T22:34:27.847Z,32.67
2022-11-29T22:36:55.351Z,34.70
2022-11-29T22:39:22.651Z,34.23
2022-11-29T22:41:54.319Z,33.57
2022-11-29T22:44:23.894Z,33.10
2022-11-29T22:46:51.721Z,33.47
2022-11-29T22:49:19.153Z,33.40
2022-11-29T22:51:46.754Z,32.13
2022-11-29T22:54:16.439Z,32.30
2022-11-29T22:56:45.515Z,35.10
2022-11-29T22:59:12.551Z,32.33
2022-11-29T23:01:42.028Z,34.87
2022-11-29T23:04:11.332Z,33.40
2022-11-29T23:06:44.251Z,33.80
2022-11-29T23:09:16.597Z,34.13
2022-11-29T23:11:45.583Z,33.30
2022-11-29T23:14:13.109Z,34.73
2022-11-29T23:16:41.389Z,34.57
2022-11-29T23:19:09.127Z,34.37
2022-11-29T23:21:40.741Z,33.80
2022-11-29T23:24:08.424Z,33.00
2022-11-29T23:26:40.274Z,34.30
2022-11-29T23:29:11.916Z,35.57
2022-11-29T23:31:39.688Z,36.93
2022-11-29T23:34:07.771Z,35.67
2022-11-29T23:36:35.638Z,34.03
2022-11-29T23:39:03.002Z,35.87
2022-11-29T23:41:30.073Z,35.80
2022-11-29T23:43:57.380Z,36.50
2022-11-29T23:46:24.654Z,34.97
2022-11-29T23:48:52.306Z,34.40
2022-11-29T23:51:21.161Z,34.63
2022-11-29T23:53:53.174Z,36.13
2022-11-29T23:56:21.325Z,37.33
2022-11-29T23:58:48.742Z,37.10
